Time;durP1;ratioP1;P1;durP2;ratioP2;P2;SDS_P1;SDS_P2;PMS_P1;PMS_P2;Temp;Humidity;BMP_temperature;BMP_pressure;BME280_temperature;BME280_humidity;BME280_pressure;Samples;Min_cycle;Max_cycle;Signal;HPM_P1;HPM_P2
2023/07/25 00:00:40;;;;;;;4.15;2.35;;;;;;;;;;5093504;28;20667;-45
2023/07/25 00:03:24;;;;;;;7.18;2.40;;;;;;;;;;5093478;28;20207;-44
2023/07/25 00:05:52;;;;;;;6.50;2.70;;;;;;;;;;5093275;28;20211;-44
2023/07/25 00:08:19;;;;;;;5.40;2.40;;;;;;;;;;5093452;28;20218;-44
2023/07/25 00:10:46;;;;;;;4.05;2.22;;;;;;;;;;5093441;28;20651;-44
2023/07/25 00:13:13;;;;;;;3.70;2.42;;;;;;;;;;5093513;28;20210;-44
2023/07/25 00:15:40;;;;;;;5.28;2.83;;;;;;;;;;5093004;28;20202;-45
2023/07/25 00:18:07;;;;;;;6.05;2.92;;;;;;;;;;5093120;28;20260;-44
2023/07/25 00:20:35;;;;;;;6.18;2.65;;;;;;;;;;5093162;28;20740;-45
2023/07/25 00:23:02;;;;;;;5.78;2.95;;;;;;;;;;5093107;28;20199;-43
2023/07/25 00:25:29;;;;;;;5.15;2.70;;;;;;;;;;5093037;28;20199;-45
2023/07/25 00:27:56;;;;;;;3.22;2.28;;;;;;;;;;5093196;28;20222;-44
2023/07/25 00:30:24;;;;;;;4.28;2.80;;;;;;;;;;5092117;28;20195;-45
2023/07/25 00:32:51;;;;;;;7.32;3.28;;;;;;;;;;5093005;28;20231;-44
2023/07/25 00:35:18;;;;;;;7.40;3.47;;;;;;;;;;5092028;28;20206;-45
2023/07/25 00:37:45;;;;;;;4.65;3.00;;;;;;;;;;5092906;28;20206;-44
2023/07/25 00:40:13;;;;;;;3.78;2.63;;;;;;;;;;5093247;28;20206;-45
2023/07/25 00:42:40;;;;;;;8.07;2.75;;;;;;;;;;5093046;28;20244;-45
2023/07/25 00:45:08;;;;;;;7.65;3.13;;;;;;;;;;5092894;28;20199;-44
2023/07/25 00:47:35;;;;;;;3.88;2.78;;;;;;;;;;5091801;28;20245;-45
2023/07/25 00:50:02;;;;;;;5.55;3.00;;;;;;;;;;5093143;28;20198;-44
2023/07/25 00:52:30;;;;;;;5.82;3.10;;;;;;;;;;5093043;28;20294;-44
2023/07/25 00:54:57;;;;;;;6.30;3.10;;;;;;;;;;5095208;28;20238;-43
2023/07/25 00:57:24;;;;;;;6.07;2.97;;;;;;;;;;5096436;28;20226;-45
2023/07/25 00:59:51;;;;;;;4.88;2.92;;;;;;;;;;5095369;28;20199;-43
2023/07/25 01:02:18;;;;;;;5.25;3.00;;;;;;;;;;5095189;28;20244;-44
2023/07/25 01:04:46;;;;;;;5.88;2.85;;;;;;;;;;5096270;28;20678;-44
2023/07/25 01:07:14;;;;;;;7.30;3.40;;;;;;;;;;5096248;28;20202;-44
2023/07/25 01:09:44;;;;;;;7.90;3.17;;;;;;;;;;5094989;28;20229;-44
2023/07/25 01:12:12;;;;;;;7.97;3.38;;;;;;;;;;5096422;28;20236;-44
2023/07/25 01:14:40;;;;;;;6.72;3.33;;;;;;;;;;5096208;28;20202;-45
2023/07/25 01:17:12;;;;;;;7.55;4.00;;;;;;;;;;5094930;28;20290;-43
2023/07/25 01:19:43;;;;;;;7.32;3.65;;;;;;;;;;5096209;28;20260;-44
2023/07/25 01:22:10;;;;;;;5.88;3.83;;;;;;;;;;5096330;28;20206;-43
2023/07/25 01:24:44;;;;;;;7.43;3.33;;;;;;;;;;5094840;28;20666;-44
2023/07/25 01:27:12;;;;;;;10.18;3.13;;;;;;;;;;5095943;28;20230;-43
2023/07/25 01:29:40;;;;;;;5.72;3.67;;;;;;;;;;5094543;28;20234;-43
2023/07/25 01:32:08;;;;;;;7.55;3.65;;;;;;;;;;5095785;28;20203;-43
2023/07/25 01:34:35;;;;;;;6.88;3.30;;;;;;;;;;5095824;28;20203;-44
2023/07/25 01:37:03;;;;;;;6.03;3.67;;;;;;;;;;5095865;28;20222;-44
2023/07/25 01:39:30;;;;;;;6.28;3.50;;;;;;;;;;5094557;28;20202;-44
2023/07/25 01:41:57;;;;;;;8.20;3.70;;;;;;;;;;5095642;28;20229;-45
2023/07/25 01:44:24;;;;;;;6.47;3.40;;;;;;;;;;5095688;28;20256;-43
2023/07/25 01:46:52;;;;;;;8.93;3.70;;;;;;;;;;5094388;28;20656;-43
2023/07/25 01:49:19;;;;;;;8.80;3.20;;;;;;;;;;5094331;28;20234;-44
2023/07/25 01:51:46;;;;;;;6.63;3.70;;;;;;;;;;5094298;28;20198;-44
2023/07/25 01:54:16;;;;;;;5.45;3.35;;;;;;;;;;5095175;28;20251;-43
2023/07/25 01:56:43;;;;;;;4.85;3.20;;;;;;;;;;5094149;28;20199;-43
2023/07/25 01:59:13;;;;;;;6.40;3.30;;;;;;;;;;5094084;28;20213;-44
2023/07/25 02:01:40;;;;;;;10.55;4.25;;;;;;;;;;5093978;28;20207;-44
2023/07/25 02:04:08;;;;;;;12.38;3.38;;;;;;;;;;5095238;28;20288;-43
2023/07/25 02:06:35;;;;;;;11.00;3.83;;;;;;;;;;5093807;28;20228;-43
2023/07/25 02:09:02;;;;;;;10.65;3.78;;;;;;;;;;5094832;28;20226;-43
2023/07/25 02:11:29;;;;;;;5.63;3.47;;;;;;;;;;5094739;28;20208;-43
2023/07/25 02:13:57;;;;;;;6.70;3.67;;;;;;;;;;5093797;28;20203;-43
2023/07/25 02:16:24;;;;;;;6.80;3.70;;;;;;;;;;5094906;28;20197;-43
2023/07/25 02:18:52;;;;;;;7.43;3.95;;;;;;;;;;5093491;28;20218;-44
2023/07/25 02:21:19;;;;;;;6.28;3.88;;;;;;;;;;5093466;28;20210;-44
2023/07/25 02:23:46;;;;;;;6.97;3.80;;;;;;;;;;5093306;28;20206;-44
2023/07/25 02:26:13;;;;;;;9.38;3.97;;;;;;;;;;5094683;28;20754;-44
2023/07/25 02:28:40;;;;;;;6.82;4.10;;;;;;;;;;5094381;28;20222;-43
2023/07/25 02:31:07;;;;;;;8.18;4.03;;;;;;;;;;5093219;28;20198;-43
2023/07/25 02:33:35;;;;;;;6.88;4.35;;;;;;;;;;5094308;28;20207;-44
2023/07/25 02:36:02;;;;;;;5.93;3.97;;;;;;;;;;5093134;28;20198;-43
2023/07/25 02:38:29;;;;;;;5.30;3.65;;;;;;;;;;5094488;28;20210;-45
2023/07/25 02:40:56;;;;;;;7.05;3.97;;;;;;;;;;5094453;28;20199;-44
2023/07/25 02:43:24;;;;;;;11.23;4.93;;;;;;;;;;5094217;28;20202;-43
2023/07/25 02:45:51;;;;;;;6.80;4.13;;;;;;;;;;5094156;28;20202;-43
2023/07/25 02:48:19;;;;;;;11.57;5.10;;;;;;;;;;5093133;28;20229;-44
2023/07/25 02:50:46;;;;;;;6.60;4.10;;;;;;;;;;5092863;28;20230;-44
2023/07/25 02:53:13;;;;;;;7.32;4.50;;;;;;;;;;5093989;28;20210;-43
2023/07/25 02:55:40;;;;;;;6.38;3.92;;;;;;;;;;5092675;28;20226;-44
2023/07/25 02:58:08;;;;;;;7.78;4.28;;;;;;;;;;5094061;28;20211;-44
2023/07/25 03:00:35;;;;;;;8.50;4.57;;;;;;;;;;5093820;28;20667;-44
2023/07/25 03:03:02;;;;;;;7.88;4.80;;;;;;;;;;5092672;28;20206;-44
2023/07/25 03:05:29;;;;;;;5.68;3.97;;;;;;;;;;5092813;28;20203;-43
2023/07/25 03:07:57;;;;;;;9.80;4.90;;;;;;;;;;5092706;28;20202;-43
2023/07/25 03:10:24;;;;;;;6.60;4.03;;;;;;;;;;5092686;28;20206;-45
2023/07/25 03:12:52;;;;;;;5.78;4.03;;;;;;;;;;5093646;28;20207;-44
2023/07/25 03:15:20;;;;;;;5.40;4.13;;;;;;;;;;5076215;28;20205;-44
2023/07/25 03:17:47;;;;;;;6.55;4.10;;;;;;;;;;5090318;28;20554;-44
2023/07/25 03:20:15;;;;;;;6.70;4.22;;;;;;;;;;5091829;28;20198;-43
2023/07/25 03:22:42;;;;;;;9.05;4.35;;;;;;;;;;5091623;28;20256;-45
2023/07/25 03:25:09;;;;;;;8.00;4.68;;;;;;;;;;5094018;28;20199;-43
2023/07/25 03:27:36;;;;;;;7.45;4.72;;;;;;;;;;5092973;28;20198;-44
2023/07/25 03:30:04;;;;;;;9.10;4.53;;;;;;;;;;5091909;28;20232;-44
2023/07/25 03:32:31;;;;;;;5.32;3.63;;;;;;;;;;5085584;28;20196;-43
2023/07/25 03:34:58;;;;;;;6.47;4.25;;;;;;;;;;5089262;28;20203;-44
2023/07/25 03:37:26;;;;;;;9.23;4.20;;;;;;;;;;5088221;28;20704;-43
2023/07/25 03:39:53;;;;;;;8.85;5.00;;;;;;;;;;5091193;28;20229;-44
2023/07/25 03:42:20;;;;;;;9.65;4.28;;;;;;;;;;5090959;28;20222;-44
2023/07/25 03:44:47;;;;;;;10.90;4.38;;;;;;;;;;5091765;28;20682;-44
2023/07/25 03:47:15;;;;;;;6.60;4.18;;;;;;;;;;5085164;28;20203;-45
2023/07/25 03:49:42;;;;;;;7.03;4.10;;;;;;;;;;5090890;28;20211;-43
2023/07/25 03:52:09;;;;;;;6.45;4.35;;;;;;;;;;5090312;28;20202;-43
2023/07/25 03:54:36;;;;;;;7.43;4.15;;;;;;;;;;5090899;28;20576;-44
2023/07/25 03:57:04;;;;;;;9.80;4.15;;;;;;;;;;5089152;28;20202;-45
2023/07/25 03:59:31;;;;;;;7.47;3.88;;;;;;;;;;5091607;28;20199;-44
2023/07/25 04:01:58;;;;;;;6.32;3.97;;;;;;;;;;5088835;28;20217;-43
2023/07/25 04:04:25;;;;;;;7.85;4.45;;;;;;;;;;5082383;28;20282;-44
2023/07/25 04:06:53;;;;;;;10.63;4.45;;;;;;;;;;5109472;28;20202;-44
2023/07/25 04:09:20;;;;;;;5.05;3.58;;;;;;;;;;5087617;28;20339;-44
2023/07/25 04:11:47;;;;;;;8.05;4.60;;;;;;;;;;5093624;28;20202;-43
2023/07/25 04:14:15;;;;;;;6.38;4.35;;;;;;;;;;5089317;28;20238;-49
2023/07/25 04:16:42;;;;;;;7.32;4.07;;;;;;;;;;5091300;28;20245;-44
2023/07/25 04:19:09;;;;;;;8.38;4.35;;;;;;;;;;5091578;28;20234;-45
2023/07/25 04:21:36;;;;;;;7.15;3.97;;;;;;;;;;5092156;28;20234;-44
2023/07/25 04:24:05;;;;;;;6.75;4.00;;;;;;;;;;5091293;28;20280;-44
2023/07/25 04:26:33;;;;;;;8.30;4.00;;;;;;;;;;5091296;28;20771;-44
2023/07/25 04:29:00;;;;;;;7.38;4.35;;;;;;;;;;5094748;28;20248;-47
2023/07/25 04:31:27;;;;;;;6.88;4.50;;;;;;;;;;5095783;28;20230;-45
2023/07/25 04:33:55;;;;;;;8.63;4.50;;;;;;;;;;5095111;28;20303;-44
2023/07/25 04:36:24;;;;;;;9.25;4.40;;;;;;;;;;5095617;28;20214;-46
2023/07/25 04:38:52;;;;;;;5.43;3.55;;;;;;;;;;5092389;28;20249;-45
2023/07/25 04:41:19;;;;;;;7.05;3.97;;;;;;;;;;5093684;28;20214;-44
2023/07/25 04:43:46;;;;;;;9.80;4.00;;;;;;;;;;5095033;28;20214;-45
2023/07/25 04:46:13;;;;;;;10.38;6.00;;;;;;;;;;5094756;28;20223;-44
2023/07/25 04:48:40;;;;;;;6.90;4.47;;;;;;;;;;5095941;28;20325;-44
2023/07/25 04:51:08;;;;;;;10.63;4.20;;;;;;;;;;5094670;28;20585;-45
2023/07/25 04:53:35;;;;;;;7.15;3.97;;;;;;;;;;5095575;28;20245;-44
2023/07/25 04:56:02;;;;;;;6.78;4.32;;;;;;;;;;5094620;28;20295;-44
2023/07/25 04:58:29;;;;;;;11.68;4.10;;;;;;;;;;5095531;28;20218;-45
2023/07/25 05:00:56;;;;;;;7.57;3.92;;;;;;;;;;5095952;28;20222;-44
2023/07/25 05:03:25;;;;;;;7.07;3.53;;;;;;;;;;5095921;28;20229;-43
2023/07/25 05:05:54;;;;;;;7.35;3.90;;;;;;;;;;5095570;28;20706;-44
2023/07/25 05:08:21;;;;;;;7.95;4.35;;;;;;;;;;5079719;28;20608;-45
2023/07/25 05:10:53;;;;;;;7.68;3.72;;;;;;;;;;5095830;28;20226;-43
2023/07/25 05:13:20;;;;;;;7.50;3.47;;;;;;;;;;5090939;28;20219;-45
2023/07/25 05:15:47;;;;;;;7.22;4.20;;;;;;;;;;5105743;27;20226;-44
2023/07/25 05:18:15;;;;;;;7.55;4.03;;;;;;;;;;5092239;28;20233;-47
2023/07/25 05:20:42;;;;;;;8.45;3.72;;;;;;;;;;5075278;28;20223;-43
2023/07/25 05:23:09;;;;;;;8.93;4.00;;;;;;;;;;5074234;28;20195;-45
2023/07/25 05:25:37;;;;;;;9.60;4.30;;;;;;;;;;5074202;28;20215;-45
2023/07/25 05:28:04;;;;;;;9.80;4.35;;;;;;;;;;5074034;28;20207;-46
2023/07/25 05:30:32;;;;;;;6.57;4.05;;;;;;;;;;5074870;28;20235;-44
2023/07/25 05:33:00;;;;;;;5.93;3.50;;;;;;;;;;5075304;28;20207;-45
2023/07/25 05:35:27;;;;;;;5.90;3.22;;;;;;;;;;5075739;28;20196;-43
2023/07/25 05:37:54;;;;;;;6.55;3.75;;;;;;;;;;5075506;28;20207;-44
2023/07/25 05:40:21;;;;;;;8.30;3.88;;;;;;;;;;5075854;28;20203;-44
2023/07/25 05:42:48;;;;;;;7.05;3.95;;;;;;;;;;5075363;28;20209;-45
2023/07/25 05:45:16;;;;;;;7.93;3.42;;;;;;;;;;5090802;28;20203;-48
2023/07/25 05:47:43;;;;;;;12.95;6.60;;;;;;;;;;5095690;28;20567;-46
2023/07/25 05:50:11;;;;;;;6.35;3.65;;;;;;;;;;5095427;28;20347;-47
2023/07/25 05:52:38;;;;;;;7.15;3.65;;;;;;;;;;5095655;28;20202;-46
2023/07/25 05:55:06;;;;;;;8.35;3.67;;;;;;;;;;5095621;28;20230;-46
2023/07/25 05:57:33;;;;;;;8.90;3.85;;;;;;;;;;5087652;28;20203;-46
2023/07/25 06:00:00;;;;;;;6.82;3.60;;;;;;;;;;5075121;28;20327;-49
2023/07/25 06:02:30;;;;;;;11.15;4.45;;;;;;;;;;5089796;28;20198;-48
2023/07/25 06:04:58;;;;;;;13.25;4.60;;;;;;;;;;5094986;28;20205;-47
2023/07/25 06:07:25;;;;;;;10.55;5.90;;;;;;;;;;5094816;28;20194;-47
2023/07/25 06:09:52;;;;;;;7.95;4.57;;;;;;;;;;5094607;28;20251;-50
2023/07/25 06:12:19;;;;;;;9.02;4.18;;;;;;;;;;5094533;28;20625;-48
2023/07/25 06:14:46;;;;;;;8.35;4.78;;;;;;;;;;5094321;28;20197;-50
2023/07/25 06:17:13;;;;;;;8.80;4.00;;;;;;;;;;5094717;28;20219;-47
2023/07/25 06:19:41;;;;;;;6.13;3.83;;;;;;;;;;5094437;28;20666;-47
2023/07/25 06:22:09;;;;;;;7.03;4.00;;;;;;;;;;5091916;28;20711;-48
2023/07/25 06:24:36;;;;;;;6.97;4.32;;;;;;;;;;5093537;28;20240;-48
2023/07/25 06:27:03;;;;;;;8.60;4.45;;;;;;;;;;5093069;28;20202;-50
2023/07/25 06:29:31;;;;;;;7.45;4.60;;;;;;;;;;5094090;28;20215;-51
2023/07/25 06:31:58;;;;;;;7.82;4.20;;;;;;;;;;5094195;28;20605;-48
2023/07/25 06:34:26;;;;;;;6.80;4.18;;;;;;;;;;5090633;28;20654;-46
2023/07/25 06:36:55;;;;;;;8.25;4.78;;;;;;;;;;5093844;28;20230;-50
2023/07/25 06:39:23;;;;;;;9.02;4.60;;;;;;;;;;5093766;28;20207;-47
2023/07/25 06:41:50;;;;;;;7.60;4.32;;;;;;;;;;5094015;28;20197;-46
2023/07/25 06:44:19;;;;;;;7.60;4.50;;;;;;;;;;5094041;28;20191;-45
2023/07/25 06:46:47;;;;;;;7.60;5.03;;;;;;;;;;5092762;28;20191;-48
2023/07/25 06:49:14;;;;;;;8.82;4.85;;;;;;;;;;5093001;28;20226;-47
2023/07/25 06:51:41;;;;;;;9.30;4.93;;;;;;;;;;5093382;28;20209;-47
2023/07/25 06:54:09;;;;;;;6.93;4.03;;;;;;;;;;5090737;28;20194;-46
2023/07/25 06:56:36;;;;;;;11.73;4.95;;;;;;;;;;5093506;28;20198;-48
2023/07/25 06:59:03;;;;;;;8.15;4.50;;;;;;;;;;5093388;28;20671;-49
2023/07/25 07:01:30;;;;;;;9.38;5.07;;;;;;;;;;5093073;28;20210;-48
2023/07/25 07:03:58;;;;;;;6.82;4.47;;;;;;;;;;5092936;28;20536;-48
2023/07/25 07:06:25;;;;;;;10.65;5.20;;;;;;;;;;5093311;28;20214;-48
2023/07/25 07:08:53;;;;;;;10.00;5.22;;;;;;;;;;5093173;28;20191;-46
2023/07/25 07:11:20;;;;;;;9.95;5.30;;;;;;;;;;5093463;28;20231;-46
2023/07/25 07:13:47;;;;;;;9.18;4.53;;;;;;;;;;5090589;28;20207;-47
2023/07/25 07:16:14;;;;;;;7.88;4.78;;;;;;;;;;5091649;28;20282;-47
2023/07/25 07:18:42;;;;;;;9.15;5.03;;;;;;;;;;5092372;28;20203;-49
2023/07/25 07:21:09;;;;;;;7.85;4.68;;;;;;;;;;5090495;28;20202;-46
2023/07/25 07:23:36;;;;;;;8.07;4.68;;;;;;;;;;5093494;28;20308;-47
2023/07/25 07:26:03;;;;;;;8.07;4.97;;;;;;;;;;5093831;28;20194;-46
2023/07/25 07:28:30;;;;;;;9.18;4.85;;;;;;;;;;5093720;28;20208;-46
2023/07/25 07:30:57;;;;;;;7.88;4.80;;;;;;;;;;5093394;28;20660;-46
2023/07/25 07:33:26;;;;;;;15.30;4.60;;;;;;;;;;5092972;28;20213;-46
2023/07/25 07:35:53;;;;;;;6.72;3.90;;;;;;;;;;5093318;28;20223;-46
2023/07/25 07:38:20;;;;;;;7.75;4.45;;;;;;;;;;5092290;28;20194;-45
2023/07/25 07:40:47;;;;;;;8.23;4.20;;;;;;;;;;5090453;28;20281;-48
2023/07/25 07:43:15;;;;;;;11.40;4.53;;;;;;;;;;5093485;28;20214;-45
2023/07/25 07:45:42;;;;;;;7.95;4.07;;;;;;;;;;5093598;28;20206;-46
2023/07/25 07:48:10;;;;;;;8.23;4.20;;;;;;;;;;5092905;28;20198;-49
2023/07/25 07:50:37;;;;;;;5.95;3.40;;;;;;;;;;5092776;28;20234;-46
2023/07/25 07:53:04;;;;;;;9.48;3.72;;;;;;;;;;5090232;28;20248;-47
2023/07/25 07:55:31;;;;;;;5.53;3.25;;;;;;;;;;5093156;28;20222;-46
2023/07/25 07:58:00;;;;;;;5.85;3.45;;;;;;;;;;5092002;28;20202;-48
2023/07/25 08:00:27;;;;;;;4.43;3.05;;;;;;;;;;5092600;28;20203;-46
2023/07/25 08:02:54;;;;;;;6.15;3.17;;;;;;;;;;5096833;28;20217;-47
2023/07/25 08:05:21;;;;;;;6.15;3.40;;;;;;;;;;5096913;28;20198;-46
2023/07/25 08:07:49;;;;;;;5.80;3.80;;;;;;;;;;5095683;28;20207;-46
2023/07/25 08:10:16;;;;;;;8.00;3.13;;;;;;;;;;5095852;28;20621;-47
2023/07/25 08:12:43;;;;;;;6.03;3.65;;;;;;;;;;5097218;28;20206;-50
2023/07/25 08:15:10;;;;;;;6.00;3.38;;;;;;;;;;5097012;28;20568;-47
2023/07/25 08:17:38;;;;;;;4.65;3.00;;;;;;;;;;5097578;28;20206;-47
2023/07/25 08:20:06;;;;;;;6.80;3.15;;;;;;;;;;5097039;28;20222;-56
2023/07/25 08:22:33;;;;;;;4.97;3.10;;;;;;;;;;5097453;28;20203;-54
2023/07/25 08:25:00;;;;;;;5.10;3.08;;;;;;;;;;5097236;28;20252;-54
2023/07/25 08:27:28;;;;;;;7.28;3.10;;;;;;;;;;5097207;28;20634;-54
2023/07/25 08:29:55;;;;;;;5.93;2.90;;;;;;;;;;5097290;28;20211;-51
2023/07/25 08:32:24;;;;;;;6.97;3.53;;;;;;;;;;5097074;28;20565;-53
2023/07/25 08:34:51;;;;;;;6.05;2.60;;;;;;;;;;5096995;28;20675;-55
2023/07/25 08:37:19;;;;;;;5.25;2.97;;;;;;;;;;5097296;28;20202;-53
2023/07/25 08:39:46;;;;;;;4.20;2.58;;;;;;;;;;5096335;28;20259;-55
2023/07/25 08:42:15;;;;;;;4.53;2.30;;;;;;;;;;5096735;28;20214;-56
2023/07/25 08:44:42;;;;;;;4.25;2.78;;;;;;;;;;5095529;28;20202;-55
2023/07/25 08:47:12;;;;;;;4.57;2.75;;;;;;;;;;5095477;28;20566;-52
2023/07/25 08:49:40;;;;;;;5.55;2.70;;;;;;;;;;5095396;28;20207;-51
2023/07/25 08:52:08;;;;;;;4.18;2.35;;;;;;;;;;5096484;28;20229;-50
2023/07/25 08:54:36;;;;;;;4.13;2.70;;;;;;;;;;5095548;28;20226;-53
2023/07/25 08:57:04;;;;;;;3.97;2.50;;;;;;;;;;5094280;28;20565;-54
2023/07/25 08:59:32;;;;;;;8.98;2.63;;;;;;;;;;5096073;28;20191;-55
2023/07/25 09:02:00;;;;;;;4.88;2.60;;;;;;;;;;5096283;28;20205;-50
2023/07/25 09:04:27;;;;;;;4.18;2.38;;;;;;;;;;5110884;28;20210;-56
2023/07/25 09:06:54;;;;;;;3.38;2.30;;;;;;;;;;5095029;28;20213;-55
2023/07/25 09:09:23;;;;;;;2.90;1.85;;;;;;;;;;5093873;28;20203;-54
2023/07/25 09:11:50;;;;;;;3.92;2.50;;;;;;;;;;5094872;28;20226;-53
2023/07/25 09:14:17;;;;;;;4.03;2.10;;;;;;;;;;5090060;28;20210;-49
2023/07/25 09:16:44;;;;;;;4.72;2.15;;;;;;;;;;5092474;28;20194;-54
2023/07/25 09:19:12;;;;;;;5.55;2.25;;;;;;;;;;5095970;28;20238;-51
2023/07/25 09:21:50;;;;;;;6.25;2.08;;;;;;;;;;5095825;28;20267;-50
2023/07/25 09:24:17;;;;;;;5.85;1.88;;;;;;;;;;5095817;28;20217;-49
2023/07/25 09:26:49;;;;;;;3.65;2.08;;;;;;;;;;5095763;28;20195;-49
2023/07/25 09:29:24;;;;;;;4.60;1.90;;;;;;;;;;5095445;28;20199;-49
2023/07/25 09:31:51;;;;;;;3.05;1.75;;;;;;;;;;5095485;28;20230;-50
2023/07/25 09:34:23;;;;;;;6.00;2.03;;;;;;;;;;5095112;28;20553;-58
2023/07/25 09:36:50;;;;;;;4.13;2.35;;;;;;;;;;5095142;28;20199;-58
2023/07/25 09:39:17;;;;;;;4.40;1.88;;;;;;;;;;5095343;28;20286;-58
2023/07/25 09:41:45;;;;;;;4.20;2.15;;;;;;;;;;5092840;28;20261;-59
2023/07/25 09:44:12;;;;;;;3.22;2.08;;;;;;;;;;5094786;28;20195;-50
2023/07/25 09:46:50;;;;;;;3.38;2.15;;;;;;;;;;5094997;28;20531;-58
2023/07/25 09:49:20;;;;;;;2.85;1.60;;;;;;;;;;5094917;28;20213;-57
2023/07/25 09:52:03;;;;;;;4.45;2.15;;;;;;;;;;5092957;28;20244;-55
2023/07/25 09:54:30;;;;;;;3.00;2.00;;;;;;;;;;5093146;28;20222;-54
2023/07/25 09:56:57;;;;;;;4.05;1.95;;;;;;;;;;5094798;28;20251;-55
2023/07/25 09:59:24;;;;;;;5.63;1.80;;;;;;;;;;5090466;28;20191;-49
2023/07/25 10:01:54;;;;;;;3.05;1.85;;;;;;;;;;5093400;28;20207;-49
2023/07/25 10:04:22;;;;;;;2.53;1.55;;;;;;;;;;5094888;28;20207;-50
2023/07/25 10:06:51;;;;;;;2.88;1.63;;;;;;;;;;5094783;28;20680;-51
2023/07/25 10:09:18;;;;;;;8.02;4.93;;;;;;;;;;5095093;28;20293;-55
2023/07/25 10:11:50;;;;;;;3.88;1.83;;;;;;;;;;5094309;28;20214;-54
2023/07/25 10:14:17;;;;;;;4.70;1.80;;;;;;;;;;5093835;28;20209;-50
2023/07/25 10:16:45;;;;;;;2.33;1.50;;;;;;;;;;5093101;28;20190;-54
2023/07/25 10:19:12;;;;;;;2.83;1.90;;;;;;;;;;5093318;28;20195;-53
2023/07/25 10:21:58;;;;;;;3.25;1.63;;;;;;;;;;5091652;28;20731;-57
2023/07/25 10:24:32;;;;;;;2.65;1.70;;;;;;;;;;5091167;28;20553;-57
2023/07/25 10:27:00;;;;;;;10.48;1.80;;;;;;;;;;5093905;28;20291;-57
2023/07/25 10:29:39;;;;;;;2.97;1.88;;;;;;;;;;5093338;28;20194;-57
2023/07/25 10:32:07;;;;;;;2.83;1.65;;;;;;;;;;5092222;28;20218;-55
2023/07/25 10:35:00;;;;;;;2.88;1.80;;;;;;;;;;5093978;28;20604;-57
2023/07/25 10:37:30;;;;;;;2.63;1.77;;;;;;;;;;5092387;28;20194;-56
2023/07/25 10:40:16;;;;;;;4.38;2.13;;;;;;;;;;5093906;28;20218;-57
2023/07/25 10:42:47;;;;;;;2.47;1.65;;;;;;;;;;5093546;28;20290;-58
2023/07/25 10:45:27;;;;;;;3.35;2.05;;;;;;;;;;5090304;28;20652;-55
2023/07/25 10:47:59;;;;;;;3.25;1.88;;;;;;;;;;5092231;28;20205;-58
2023/07/25 10:50:47;;;;;;;3.25;2.03;;;;;;;;;;5091245;28;20222;-58
2023/07/25 10:53:24;;;;;;;3.15;1.83;;;;;;;;;;5090116;28;20206;-57
2023/07/25 10:56:03;;;;;;;4.32;1.92;;;;;;;;;;5093858;28;20589;-58
2023/07/25 10:58:37;;;;;;;3.90;2.13;;;;;;;;;;5073576;28;20191;-42
2023/07/25 11:01:04;;;;;;;4.47;2.00;;;;;;;;;;5073779;28;20202;-42
2023/07/25 11:03:35;;;;;;;3.67;1.85;;;;;;;;;;5089450;28;20988;-41
2023/07/25 11:06:05;;;;;;;8.98;2.00;;;;;;;;;;5093952;28;20190;-43
2023/07/25 11:08:33;;;;;;;2.53;1.65;;;;;;;;;;5092629;28;20195;-43
2023/07/25 11:11:05;;;;;;;4.07;2.15;;;;;;;;;;5093296;28;20558;-43
2023/07/25 11:13:34;;;;;;;3.58;2.00;;;;;;;;;;5084024;28;20226;-44
2023/07/25 11:16:02;;;;;;;2.72;1.75;;;;;;;;;;5092282;28;20255;-43
2023/07/25 11:18:33;;;;;;;3.20;1.92;;;;;;;;;;5092901;28;20954;-44
2023/07/25 11:21:02;;;;;;;2.78;1.95;;;;;;;;;;5114752;27;20191;-43
2023/07/25 11:23:30;;;;;;;2.67;1.70;;;;;;;;;;5092539;28;20194;-43
2023/07/25 11:25:58;;;;;;;4.15;1.92;;;;;;;;;;5090688;28;20206;-44
2023/07/25 11:28:29;;;;;;;3.55;2.20;;;;;;;;;;5091412;28;20210;-44
2023/07/25 11:30:57;;;;;;;4.80;2.22;;;;;;;;;;5092145;28;20210;-44
2023/07/25 11:33:25;;;;;;;2.63;1.92;;;;;;;;;;5091931;28;20655;-44
2023/07/25 11:35:53;;;;;;;2.70;1.90;;;;;;;;;;5090561;28;20197;-45
2023/07/25 11:38:21;;;;;;;3.97;2.05;;;;;;;;;;5090097;28;20202;-44
2023/07/25 11:40:53;;;;;;;4.03;2.22;;;;;;;;;;5092679;28;20259;-44
2023/07/25 11:43:21;;;;;;;2.88;1.75;;;;;;;;;;5086369;28;20183;-42
2023/07/25 11:45:49;;;;;;;2.90;2.00;;;;;;;;;;5091237;28;20209;-43
2023/07/25 11:48:19;;;;;;;4.72;1.90;;;;;;;;;;5092338;28;20547;-45
2023/07/25 11:50:48;;;;;;;2.75;2.00;;;;;;;;;;5090271;28;20229;-43
2023/07/25 11:53:20;;;;;;;2.90;1.90;;;;;;;;;;5091089;28;20183;-44
2023/07/25 11:55:50;;;;;;;3.58;2.20;;;;;;;;;;5072840;28;20305;-45
2023/07/25 11:58:20;;;;;;;2.75;1.70;;;;;;;;;;5080873;28;20179;-42
2023/07/25 12:00:54;;;;;;;6.53;2.15;;;;;;;;;;5092146;28;20216;-42
2023/07/25 12:03:23;;;;;;;3.33;2.25;;;;;;;;;;5090886;28;20182;-44
2023/07/25 12:05:55;;;;;;;3.33;2.17;;;;;;;;;;5092359;28;20206;-41
2023/07/25 12:08:49;;;;;;;3.95;2.38;;;;;;;;;;5092690;28;20261;-43
2023/07/25 12:11:16;;;;;;;3.58;2.30;;;;;;;;;;5090174;28;20566;-49
2023/07/25 12:13:51;;;;;;;4.57;2.15;;;;;;;;;;5087803;28;20228;-42
2023/07/25 12:16:24;;;;;;;4.25;2.30;;;;;;;;;;5092679;28;20187;-43
2023/07/25 12:18:56;;;;;;;3.80;2.25;;;;;;;;;;5091854;28;20190;-43
2023/07/25 12:21:31;;;;;;;4.13;2.20;;;;;;;;;;5092223;28;20209;-47
2023/07/25 12:24:00;;;;;;;3.47;2.20;;;;;;;;;;5091112;28;20194;-44
2023/07/25 12:26:41;;;;;;;2.88;1.90;;;;;;;;;;5090110;28;20537;-45
2023/07/25 12:29:13;;;;;;;3.17;2.50;;;;;;;;;;5081215;28;20217;-44
2023/07/25 12:31:41;;;;;;;4.78;2.60;;;;;;;;;;5084870;28;20218;-44
2023/07/25 12:34:08;;;;;;;4.18;2.15;;;;;;;;;;5091123;28;20687;-44
2023/07/25 12:36:36;;;;;;;3.60;2.42;;;;;;;;;;5088269;28;20607;-43
2023/07/25 12:39:04;;;;;;;6.90;2.33;;;;;;;;;;5085134;28;20248;-44
2023/07/25 12:41:31;;;;;;;3.25;2.25;;;;;;;;;;5091130;28;20227;-41
2023/07/25 12:43:58;;;;;;;3.80;2.13;;;;;;;;;;5091599;28;20223;-41
2023/07/25 12:46:26;;;;;;;3.88;2.13;;;;;;;;;;5091353;28;20230;-43
2023/07/25 12:48:53;;;;;;;4.47;1.90;;;;;;;;;;5093129;28;20218;-43
2023/07/25 12:51:21;;;;;;;3.05;1.85;;;;;;;;;;5090243;28;20230;-42
2023/07/25 12:53:48;;;;;;;2.92;2.00;;;;;;;;;;5094283;28;20291;-43
2023/07/25 12:56:15;;;;;;;4.82;2.08;;;;;;;;;;5094721;28;20226;-43
2023/07/25 12:58:43;;;;;;;5.60;2.00;;;;;;;;;;5092162;28;20214;-40
2023/07/25 13:01:10;;;;;;;4.25;1.83;;;;;;;;;;5094241;28;20229;-43
2023/07/25 13:03:40;;;;;;;3.05;1.90;;;;;;;;;;5094515;28;20720;-43
2023/07/25 13:06:08;;;;;;;1.92;1.33;;;;;;;;;;5095737;28;20260;-41
2023/07/25 13:08:35;;;;;;;3.13;1.80;;;;;;;;;;5091380;28;20225;-48
2023/07/25 13:11:02;;;;;;;7.45;1.75;;;;;;;;;;5094980;28;20234;-44
2023/07/25 13:13:30;;;;;;;2.55;1.60;;;;;;;;;;5095224;28;20226;-43
2023/07/25 13:15:57;;;;;;;3.22;1.77;;;;;;;;;;5090568;28;20219;-44
2023/07/25 13:18:25;;;;;;;4.20;1.90;;;;;;;;;;5093498;28;20219;-43
2023/07/25 13:20:52;;;;;;;4.95;1.70;;;;;;;;;;5086838;28;20284;-43
2023/07/25 13:23:19;;;;;;;2.53;1.77;;;;;;;;;;5092360;28;20222;-43
2023/07/25 13:25:46;;;;;;;3.33;1.80;;;;;;;;;;5094088;28;20249;-44
2023/07/25 13:28:14;;;;;;;7.03;2.00;;;;;;;;;;5092667;28;20230;-43
2023/07/25 13:30:41;;;;;;;3.10;1.80;;;;;;;;;;5093091;28;20774;-46
2023/07/25 13:33:09;;;;;;;2.42;1.70;;;;;;;;;;5094729;28;20581;-43
2023/07/25 13:35:36;;;;;;;2.97;1.67;;;;;;;;;;5094545;28;20924;-47
2023/07/25 13:38:03;;;;;;;3.70;1.80;;;;;;;;;;5094651;28;20236;-44
2023/07/25 13:40:30;;;;;;;3.17;1.80;;;;;;;;;;5094418;28;20254;-45
2023/07/25 13:42:58;;;;;;;3.58;1.98;;;;;;;;;;5094426;28;20218;-43
2023/07/25 13:45:25;;;;;;;2.42;1.60;;;;;;;;;;5094355;28;20234;-42
2023/07/25 13:48:11;;;;;;;2.70;1.80;;;;;;;;;;5092860;28;20226;-44
2023/07/25 13:50:38;;;;;;;2.65;1.80;;;;;;;;;;5090990;28;20223;-43
2023/07/25 13:53:20;;;;;;;2.60;1.70;;;;;;;;;;5092076;28;20214;-43
2023/07/25 13:55:47;;;;;;;3.08;1.85;;;;;;;;;;5082294;28;20226;-43
2023/07/25 13:58:14;;;;;;;3.20;1.73;;;;;;;;;;5089445;28;20215;-43
2023/07/25 14:00:44;;;;;;;2.25;1.20;;;;;;;;;;5093126;28;20271;-43
2023/07/25 14:03:12;;;;;;;2.25;1.52;;;;;;;;;;5093804;28;20279;-42
2023/07/25 14:05:39;;;;;;;3.25;1.75;;;;;;;;;;5093689;28;20237;-43
2023/07/25 14:08:07;;;;;;;2.17;1.63;;;;;;;;;;5093965;28;20214;-41
2023/07/25 14:10:36;;;;;;;3.13;1.73;;;;;;;;;;5093689;28;20215;-43
2023/07/25 14:13:03;;;;;;;3.17;1.67;;;;;;;;;;5093291;28;20238;-43
2023/07/25 14:15:31;;;;;;;4.85;1.25;;;;;;;;;;5090688;28;20218;-43
2023/07/25 14:18:00;;;;;;;3.75;2.00;;;;;;;;;;5089890;28;20268;-41
2023/07/25 14:20:28;;;;;;;3.00;2.05;;;;;;;;;;5090864;28;20249;-44
2023/07/25 14:22:55;;;;;;;4.38;1.80;;;;;;;;;;5093345;28;20228;-42
2023/07/25 14:25:23;;;;;;;2.13;1.48;;;;;;;;;;5093556;28;20694;-41
2023/07/25 14:27:50;;;;;;;2.67;1.55;;;;;;;;;;5092885;28;20254;-42
2023/07/25 14:30:17;;;;;;;2.63;1.50;;;;;;;;;;5092829;28;20263;-42
2023/07/25 14:32:45;;;;;;;2.88;1.65;;;;;;;;;;5093000;28;20319;-41
2023/07/25 14:35:12;;;;;;;3.17;1.58;;;;;;;;;;5093375;28;20695;-42
2023/07/25 14:37:40;;;;;;;3.33;1.80;;;;;;;;;;5092903;28;20651;-42
2023/07/25 14:40:22;;;;;;;2.30;1.30;;;;;;;;;;5091907;28;20560;-42
2023/07/25 14:42:50;;;;;;;1.75;1.35;;;;;;;;;;5092173;28;20552;-43
2023/07/25 14:45:18;;;;;;;3.40;1.58;;;;;;;;;;5093011;28;20714;-50
2023/07/25 14:47:45;;;;;;;2.42;1.50;;;;;;;;;;5086063;28;20310;-43
2023/07/25 14:50:12;;;;;;;4.60;1.50;;;;;;;;;;5079986;28;20297;-41